createdAt,value
2019-03-26T00:01:54.641Z,8.27
2019-03-26T00:04:24.518Z,11.40
2019-03-26T00:06:54.358Z,9.97
2019-03-26T00:09:24.252Z,8.53
2019-03-26T00:11:54.112Z,7.20
2019-03-26T00:14:23.941Z,11.80
2019-03-26T00:16:53.832Z,10.77
2019-03-26T00:19:23.644Z,12.23
2019-03-26T00:21:53.491Z,8.17
2019-03-26T00:24:23.348Z,12.43
2019-03-26T00:26:53.143Z,13.03
2019-03-26T00:29:23.044Z,9.47
2019-03-26T00:31:52.823Z,11.70
2019-03-26T00:34:22.714Z,10.67
2019-03-26T00:36:52.592Z,10.63
2019-03-26T00:39:22.537Z,9.10
2019-03-26T00:41:52.435Z,7.33
2019-03-26T00:44:22.271Z,7.43
2019-03-26T00:46:52.063Z,9.93
2019-03-26T00:49:21.965Z,11.33
2019-03-26T00:51:51.750Z,11.57
2019-03-26T00:54:21.680Z,11.57
2019-03-26T00:56:51.487Z,9.90
2019-03-26T00:59:21.340Z,9.03
2019-03-26T01:01:51.161Z,8.47
2019-03-26T01:04:32.223Z,7.90
2019-03-26T01:06:52.515Z,11.83
2019-03-26T01:09:22.401Z,11.93
2019-03-26T01:11:52.228Z,10.17
2019-03-26T01:14:22.189Z,8.40
2019-03-26T01:16:52.003Z,7.83
2019-03-26T01:19:21.815Z,12.80
2019-03-26T01:21:51.629Z,12.13
2019-03-26T01:24:21.470Z,7.90
2019-03-26T01:26:51.266Z,10.80
2019-03-26T01:29:21.171Z,11.90
2019-03-26T01:31:51.107Z,13.43
2019-03-26T01:34:21.012Z,9.80
2019-03-26T01:36:50.916Z,13.17
2019-03-26T01:39:20.795Z,13.70
2019-03-26T01:41:50.635Z,8.97
2019-03-26T01:44:20.464Z,12.87
2019-03-26T01:46:50.359Z,14.60
2019-03-26T01:49:20.209Z,8.43
2019-03-26T01:51:50.036Z,7.60
2019-03-26T01:54:19.906Z,13.20
2019-03-26T01:56:49.809Z,9.20
2019-03-26T01:59:19.666Z,9.30
2019-03-26T02:01:49.512Z,10.60
2019-03-26T02:04:19.335Z,11.60
2019-03-26T02:06:49.170Z,11.07
2019-03-26T02:09:18.982Z,14.03
2019-03-26T02:11:49.180Z,8.30
2019-03-26T02:14:18.974Z,13.43
2019-03-26T02:16:48.853Z,10.73
2019-03-26T02:19:18.631Z,11.83
2019-03-26T02:21:48.575Z,10.67
2019-03-26T02:24:18.374Z,14.03
2019-03-26T02:26:48.333Z,8.60
2019-03-26T02:29:18.197Z,10.10
2019-03-26T02:31:48.071Z,5.67
2019-03-26T02:34:17.936Z,10.20
2019-03-26T02:36:47.917Z,11.60
2019-03-26T02:39:17.793Z,8.17
2019-03-26T02:41:47.764Z,16.13
2019-03-26T02:44:17.552Z,10.13
2019-03-26T02:46:47.424Z,10.60
2019-03-26T02:49:17.289Z,14.23
2019-03-26T02:51:47.252Z,7.20
2019-03-26T02:54:17.128Z,8.80
2019-03-26T02:56:46.929Z,10.60
2019-03-26T02:59:16.838Z,10.17
2019-03-26T03:01:46.712Z,8.90
2019-03-26T03:04:16.590Z,7.37
2019-03-26T03:06:46.579Z,10.00
2019-03-26T03:09:16.489Z,9.70
2019-03-26T03:11:46.446Z,11.37
2019-03-26T03:14:16.351Z,12.97
2019-03-26T03:16:46.175Z,9.17
2019-03-26T03:19:16.479Z,10.07
2019-03-26T03:21:46.401Z,14.60
2019-03-26T03:24:16.411Z,9.53
2019-03-26T03:26:46.412Z,12.33
2019-03-26T03:29:16.254Z,14.73
2019-03-26T03:31:46.160Z,10.83
2019-03-26T03:34:15.999Z,8.87
2019-03-26T03:36:45.982Z,11.43
2019-03-26T03:39:15.812Z,11.00
2019-03-26T03:41:45.760Z,10.50
2019-03-26T03:44:15.570Z,13.47
2019-03-26T03:46:47.529Z,10.87
2019-03-26T03:49:20.446Z,10.20
2019-03-26T03:51:51.441Z,7.30
2019-03-26T03:54:21.938Z,9.47
2019-03-26T03:56:53.628Z,13.70
2019-03-26T03:59:24.479Z,11.93
2019-03-26T04:01:54.335Z,9.47
2019-03-26T04:04:24.129Z,7.77
2019-03-26T04:06:53.958Z,9.57
2019-03-26T04:09:23.800Z,9.67
2019-03-26T04:11:53.669Z,12.20
2019-03-26T04:14:23.470Z,9.77
2019-03-26T04:16:53.269Z,12.60
2019-03-26T04:19:23.192Z,11.07
2019-03-26T04:21:53.039Z,12.00
2019-03-26T04:24:22.833Z,7.17
2019-03-26T04:26:52.666Z,10.53
2019-03-26T04:29:22.449Z,9.33
2019-03-26T04:31:52.258Z,10.57
2019-03-26T04:34:22.766Z,9.23
2019-03-26T04:36:52.692Z,10.40
2019-03-26T04:39:22.536Z,7.27
2019-03-26T04:41:52.459Z,10.80
2019-03-26T04:44:22.250Z,9.50
2019-03-26T04:46:52.067Z,10.60
2019-03-26T04:49:21.859Z,12.53
2019-03-26T04:51:51.650Z,8.43
2019-03-26T04:54:21.444Z,13.03
2019-03-26T04:56:51.260Z,14.73
2019-03-26T04:59:21.052Z,11.17
2019-03-26T05:01:50.856Z,9.90
2019-03-26T05:04:20.719Z,9.03
2019-03-26T05:06:50.546Z,10.37
2019-03-26T05:09:20.359Z,11.63
2019-03-26T05:11:50.186Z,11.13
2019-03-26T05:14:19.970Z,13.47
2019-03-26T05:16:49.805Z,11.20
2019-03-26T05:19:19.595Z,9.77
2019-03-26T05:21:49.404Z,11.80
2019-03-26T05:24:19.191Z,11.17
2019-03-26T05:26:49.013Z,13.77
2019-03-26T05:29:18.803Z,11.83
2019-03-26T05:31:48.643Z,10.90
2019-03-26T05:34:18.429Z,11.00
2019-03-26T05:36:51.570Z,13.07
2019-03-26T05:39:19.670Z,13.37
2019-03-26T05:41:49.491Z,14.40
2019-03-26T05:44:19.350Z,16.60
2019-03-26T05:46:49.175Z,14.63
2019-03-26T05:49:18.971Z,13.30
2019-03-26T05:51:48.871Z,13.37
2019-03-26T05:54:18.675Z,18.77
2019-03-26T05:56:48.482Z,21.53
2019-03-26T05:59:18.295Z,18.37
2019-03-26T06:01:48.130Z,21.27
2019-03-26T06:04:17.938Z,25.03
2019-03-26T06:06:47.850Z,19.60
2019-03-26T06:09:17.630Z,17.57
2019-03-26T06:11:47.494Z,19.37
2019-03-26T06:14:17.363Z,26.43
2019-03-26T06:16:47.189Z,23.57
2019-03-26T06:19:16.994Z,17.80
2019-03-26T06:21:46.799Z,21.60
2019-03-26T06:24:16.595Z,20.07
2019-03-26T06:26:46.441Z,18.63
2019-03-26T06:29:16.248Z,18.63
2019-03-26T06:31:46.131Z,17.27
2019-03-26T06:34:15.936Z,21.30
2019-03-26T06:36:45.775Z,23.23
2019-03-26T06:39:15.624Z,23.00
2019-03-26T06:41:45.430Z,19.53
2019-03-26T06:44:15.231Z,18.90
2019-03-26T06:46:45.059Z,23.43
2019-03-26T06:49:14.921Z,24.13
2019-03-26T06:51:44.748Z,28.47
2019-03-26T06:54:14.651Z,17.60
2019-03-26T06:56:44.462Z,25.33
2019-03-26T06:59:14.348Z,23.97
2019-03-26T07:01:44.163Z,21.27
2019-03-26T07:04:13.961Z,22.20
2019-03-26T07:06:43.966Z,23.13
2019-03-26T07:09:13.828Z,15.00
2019-03-26T07:11:43.640Z,13.90
2019-03-26T07:14:13.460Z,16.23
2019-03-26T07:16:43.256Z,12.37
2019-03-26T07:19:13.071Z,13.63
2019-03-26T07:21:49.584Z,13.47
2019-03-26T07:24:14.474Z,15.23
2019-03-26T07:26:44.264Z,13.10
2019-03-26T07:29:14.064Z,9.43
2019-03-26T07:31:43.990Z,10.80
2019-03-26T07:34:13.798Z,7.63
2019-03-26T07:36:43.615Z,13.60
2019-03-26T07:39:13.515Z,10.40
2019-03-26T07:41:43.326Z,12.63
2019-03-26T07:44:13.243Z,12.10
2019-03-26T07:46:43.064Z,10.77
2019-03-26T07:49:12.883Z,11.23
2019-03-26T07:51:42.717Z,13.30
2019-03-26T07:54:12.636Z,11.47
2019-03-26T07:56:42.514Z,11.53
2019-03-26T07:59:12.343Z,10.53
2019-03-26T08:01:42.152Z,12.00
2019-03-26T08:04:12.667Z,14.77
2019-03-26T08:06:42.623Z,14.47
2019-03-26T08:09:12.505Z,15.87
2019-03-26T08:11:42.393Z,18.50
2019-03-26T08:14:12.280Z,17.63
2019-03-26T08:16:42.118Z,16.30
2019-03-26T08:19:11.930Z,18.73
2019-03-26T08:21:41.812Z,21.43
2019-03-26T08:24:11.622Z,19.13
2019-03-26T08:26:41.466Z,16.83
2019-03-26T08:29:11.320Z,18.30
2019-03-26T08:31:41.214Z,20.47
2019-03-26T08:34:11.079Z,19.27
2019-03-26T08:36:40.965Z,23.43
2019-03-26T08:39:10.895Z,28.30
2019-03-26T08:41:40.832Z,22.07
2019-03-26T08:44:10.663Z,24.93
2019-03-26T08:46:40.519Z,25.30
2019-03-26T08:49:10.326Z,20.67
2019-03-26T08:51:40.183Z,22.23
2019-03-26T08:54:10.084Z,27.10
2019-03-26T08:56:39.935Z,23.33
2019-03-26T08:59:16.964Z,18.60
2019-03-26T09:01:49.088Z,20.90
2019-03-26T09:04:18.904Z,22.57
2019-03-26T09:06:48.807Z,21.07
2019-03-26T09:09:18.605Z,24.43
2019-03-26T09:11:48.519Z,16.17
2019-03-26T09:14:18.390Z,25.87
2019-03-26T09:16:48.246Z,19.77
2019-03-26T09:19:18.049Z,19.40
2019-03-26T09:21:47.890Z,20.13
2019-03-26T09:24:17.755Z,21.00
2019-03-26T09:26:47.678Z,19.90
2019-03-26T09:29:17.498Z,18.77
2019-03-26T09:31:47.353Z,16.63
2019-03-26T09:34:17.185Z,18.50
2019-03-26T09:36:47.030Z,16.23
2019-03-26T09:39:16.823Z,18.10
2019-03-26T09:41:46.746Z,18.17
2019-03-26T09:44:16.572Z,17.30
2019-03-26T09:46:46.504Z,14.97
2019-03-26T09:49:16.395Z,15.67
2019-03-26T09:51:46.211Z,17.40
2019-03-26T09:54:16.018Z,14.60
2019-03-26T09:56:45.884Z,18.53
2019-03-26T09:59:15.699Z,17.77
2019-03-26T10:01:45.732Z,14.83
2019-03-26T10:04:15.540Z,15.87
2019-03-26T10:06:45.461Z,21.43
2019-03-26T10:09:15.269Z,18.23
2019-03-26T10:11:45.116Z,18.60
2019-03-26T10:14:15.096Z,15.67
2019-03-26T10:16:44.985Z,18.10
2019-03-26T10:19:17.026Z,18.83
2019-03-26T10:21:46.375Z,24.40
2019-03-26T10:24:16.234Z,18.80
2019-03-26T10:26:46.098Z,19.83
2019-03-26T10:29:29.557Z,21.23
2019-03-26T10:31:47.420Z,18.10
2019-03-26T10:34:17.566Z,16.13
2019-03-26T10:36:47.575Z,18.97
2019-03-26T10:39:17.446Z,24.90
2019-03-26T10:41:47.242Z,18.33
2019-03-26T10:44:17.058Z,17.30
2019-03-26T10:46:47.053Z,18.07
2019-03-26T10:49:16.920Z,14.80
2019-03-26T10:51:46.782Z,18.70
2019-03-26T10:54:16.658Z,18.13
2019-03-26T10:56:46.463Z,12.97
2019-03-26T10:59:16.299Z,19.57
2019-03-26T11:01:46.091Z,18.87
2019-03-26T11:04:15.964Z,14.17
2019-03-26T11:06:45.832Z,16.67
2019-03-26T11:09:24.042Z,16.97
2019-03-26T11:11:47.231Z,18.30
2019-03-26T11:14:17.055Z,13.80
2019-03-26T11:16:47.043Z,17.73
2019-03-26T11:19:16.907Z,14.83
2019-03-26T11:21:46.719Z,19.33
2019-03-26T11:24:16.580Z,16.37
2019-03-26T11:26:46.498Z,16.97
2019-03-26T11:29:16.322Z,14.30
2019-03-26T11:31:46.174Z,12.70
2019-03-26T11:34:16.082Z,14.70
2019-03-26T11:36:45.913Z,12.47
2019-03-26T11:39:15.738Z,14.50
2019-03-26T11:41:45.550Z,14.17
2019-03-26T11:44:15.363Z,12.67
2019-03-26T11:46:45.206Z,11.83
2019-03-26T11:49:15.122Z,10.67
2019-03-26T11:51:44.912Z,12.13
2019-03-26T11:54:14.740Z,10.70
2019-03-26T11:56:44.635Z,13.17
2019-03-26T11:59:14.540Z,12.23
2019-03-26T12:01:44.349Z,16.07
2019-03-26T12:04:14.247Z,12.23
2019-03-26T12:06:44.063Z,13.57
2019-03-26T12:09:14.064Z,8.60
2019-03-26T12:11:43.910Z,16.60
2019-03-26T12:14:13.739Z,11.47
2019-03-26T12:16:43.579Z,14.73
2019-03-26T12:19:13.446Z,10.30
2019-03-26T12:21:43.299Z,16.03
2019-03-26T12:24:13.227Z,10.03
2019-03-26T12:26:43.044Z,10.37
2019-03-26T12:29:12.873Z,9.40
2019-03-26T12:31:42.688Z,8.87
2019-03-26T12:34:12.609Z,11.37
2019-03-26T12:36:42.455Z,8.33
2019-03-26T12:39:12.371Z,10.43
2019-03-26T12:41:42.290Z,10.00
2019-03-26T12:44:12.133Z,10.87
2019-03-26T12:46:42.126Z,11.10
2019-03-26T12:49:12.021Z,7.40
2019-03-26T12:51:41.911Z,9.07
2019-03-26T12:54:11.797Z,13.77
2019-03-26T12:56:41.701Z,11.20
2019-03-26T12:59:11.579Z,8.30
2019-03-26T13:01:41.564Z,8.53
2019-03-26T13:04:12.852Z,11.07
2019-03-26T13:06:42.976Z,7.50
2019-03-26T13:09:12.938Z,8.97
2019-03-26T13:11:42.774Z,8.20
2019-03-26T13:14:12.581Z,7.90
2019-03-26T13:16:42.420Z,5.67
2019-03-26T13:19:12.284Z,8.83
2019-03-26T13:21:42.200Z,7.73
2019-03-26T13:24:12.083Z,10.07
2019-03-26T13:26:42.255Z,11.60
2019-03-26T13:29:12.058Z,11.27
2019-03-26T13:31:41.912Z,7.70
2019-03-26T13:34:11.778Z,9.67
2019-03-26T13:36:43.727Z,10.70
2019-03-26T13:39:13.579Z,8.17
2019-03-26T13:41:43.426Z,12.43
2019-03-26T13:44:13.298Z,11.37
2019-03-26T13:46:43.248Z,12.53
2019-03-26T13:49:13.159Z,8.43
2019-03-26T13:51:43.051Z,9.70
2019-03-26T13:54:12.949Z,12.03
2019-03-26T13:56:44.042Z,8.07
2019-03-26T13:59:13.893Z,12.33
2019-03-26T14:01:43.782Z,10.43
2019-03-26T14:04:13.644Z,9.03
2019-03-26T14:06:43.477Z,12.03
2019-03-26T14:09:13.475Z,9.63
2019-03-26T14:11:43.296Z,8.70
2019-03-26T14:14:13.210Z,12.03
2019-03-26T14:16:43.096Z,11.53
2019-03-26T14:19:13.093Z,10.10
2019-03-26T14:21:43.215Z,14.83
2019-03-26T14:24:13.798Z,11.97
2019-03-26T14:26:43.774Z,12.60
2019-03-26T14:29:13.651Z,9.77
2019-03-26T14:31:43.610Z,15.60
2019-03-26T14:34:13.543Z,12.60
2019-03-26T14:36:43.368Z,18.40
2019-03-26T14:39:13.200Z,12.43
2019-03-26T14:41:43.142Z,15.20
2019-03-26T14:44:13.196Z,12.60
2019-03-26T14:46:43.112Z,13.67
2019-03-26T14:49:17.339Z,13.50
2019-03-26T14:51:52.654Z,14.67
2019-03-26T14:54:23.724Z,13.63
2019-03-26T14:56:53.747Z,15.60
2019-03-26T14:59:23.725Z,11.50
2019-03-26T15:01:55.038Z,12.77
2019-03-26T15:04:25.047Z,16.53
2019-03-26T15:06:54.934Z,13.57
2019-03-26T15:09:24.826Z,15.47
2019-03-26T15:11:54.697Z,10.17
2019-03-26T15:14:24.549Z,12.73
2019-03-26T15:16:54.350Z,12.30
2019-03-26T15:19:24.247Z,10.80
2019-03-26T15:21:54.062Z,10.77
2019-03-26T15:24:23.915Z,10.47
2019-03-26T15:26:53.793Z,12.30
2019-03-26T15:29:23.669Z,12.13
2019-03-26T15:31:53.557Z,9.93
2019-03-26T15:34:35.660Z,8.43
2019-03-26T15:36:55.048Z,10.63
2019-03-26T15:39:25.042Z,12.43
2019-03-26T15:41:54.954Z,10.53
2019-03-26T15:44:24.803Z,18.03
2019-03-26T15:46:54.738Z,9.43
2019-03-26T15:49:24.571Z,12.03
2019-03-26T15:51:54.462Z,10.70
2019-03-26T15:54:24.313Z,10.90
2019-03-26T15:56:54.226Z,8.03
2019-03-26T15:59:24.032Z,7.57
2019-03-26T16:01:53.863Z,9.07
2019-03-26T16:04:23.975Z,11.03
2019-03-26T16:06:53.800Z,14.90
2019-03-26T16:09:25.992Z,10.80
2019-03-26T16:11:55.950Z,8.57
2019-03-26T16:14:28.122Z,9.73
2019-03-26T16:16:57.350Z,12.97
2019-03-26T16:19:32.802Z,8.47
2019-03-26T16:21:58.734Z,13.10
2019-03-26T16:24:28.598Z,9.93
2019-03-26T16:26:58.483Z,11.00
2019-03-26T16:29:28.295Z,14.97
2019-03-26T16:31:58.156Z,13.07
2019-03-26T16:34:27.983Z,8.53
2019-03-26T16:36:59.824Z,8.47
2019-03-26T16:39:29.333Z,12.87
2019-03-26T16:41:59.194Z,9.50
2019-03-26T16:44:28.975Z,24.93
2019-03-26T16:46:59.031Z,13.67
2019-03-26T16:49:28.832Z,13.63
2019-03-26T16:51:58.680Z,10.10
2019-03-26T16:54:28.478Z,10.83
2019-03-26T16:56:58.314Z,9.53
2019-03-26T16:59:28.145Z,10.40
2019-03-26T17:01:58.047Z,9.27
2019-03-26T17:04:27.852Z,8.97
2019-03-26T17:06:57.697Z,12.50
2019-03-26T17:09:27.513Z,15.43
2019-03-26T17:12:03.015Z,12.00
2019-03-26T17:14:28.874Z,9.50
2019-03-26T17:16:58.768Z,8.30
2019-03-26T17:19:28.614Z,9.50
2019-03-26T17:21:58.464Z,13.07
2019-03-26T17:24:28.370Z,11.80
2019-03-26T17:26:58.335Z,12.07
2019-03-26T17:29:28.209Z,11.67
2019-03-26T17:31:58.094Z,9.20
2019-03-26T17:34:27.908Z,14.03
2019-03-26T17:36:57.729Z,9.87
2019-03-26T17:39:27.535Z,14.30
2019-03-26T17:41:57.391Z,11.83
2019-03-26T17:44:27.262Z,10.13
2019-03-26T17:46:57.204Z,12.97
2019-03-26T17:49:27.042Z,12.30
2019-03-26T17:51:56.859Z,10.53
2019-03-26T17:54:26.654Z,9.67
2019-03-26T17:56:56.482Z,13.40
2019-03-26T17:59:26.301Z,14.87
2019-03-26T18:01:56.216Z,15.17
2019-03-26T18:04:26.132Z,13.30
2019-03-26T18:06:55.994Z,11.70
2019-03-26T18:09:25.814Z,17.17
2019-03-26T18:11:55.638Z,17.33
2019-03-26T18:14:25.510Z,23.87
2019-03-26T18:16:55.380Z,14.50
2019-03-26T18:19:25.248Z,16.73
2019-03-26T18:21:55.958Z,20.23
2019-03-26T18:24:25.849Z,14.47
2019-03-26T18:26:55.756Z,18.47
2019-03-26T18:29:25.569Z,16.90
2019-03-26T18:31:55.460Z,16.60
2019-03-26T18:34:25.265Z,15.20
2019-03-26T18:36:55.143Z,17.47
2019-03-26T18:39:24.938Z,15.30
2019-03-26T18:41:54.746Z,14.83
2019-03-26T18:44:24.546Z,15.87
2019-03-26T18:46:54.473Z,19.73
2019-03-26T18:49:24.266Z,18.07
2019-03-26T18:51:54.106Z,22.37
2019-03-26T18:54:23.914Z,19.37
2019-03-26T18:56:53.703Z,15.57
2019-03-26T18:59:23.500Z,21.43
2019-03-26T19:01:53.348Z,21.80
2019-03-26T19:04:23.208Z,18.00
2019-03-26T19:06:53.125Z,22.23
2019-03-26T19:09:22.952Z,20.43
2019-03-26T19:11:52.772Z,15.87
2019-03-26T19:14:22.563Z,21.00
2019-03-26T19:16:52.366Z,18.47
2019-03-26T19:19:22.186Z,21.83
2019-03-26T19:21:52.030Z,22.17
2019-03-26T19:24:21.861Z,22.73
2019-03-26T19:26:51.761Z,24.83
2019-03-26T19:29:21.583Z,23.73
2019-03-26T19:31:51.453Z,19.63
2019-03-26T19:34:21.259Z,20.53
2019-03-26T19:36:51.147Z,16.80
2019-03-26T19:39:20.997Z,19.87
2019-03-26T19:41:50.927Z,16.87
2019-03-26T19:44:20.727Z,17.67
2019-03-26T19:46:50.615Z,16.33
2019-03-26T19:49:20.481Z,19.20
2019-03-26T19:51:50.345Z,19.57
2019-03-26T19:54:20.212Z,19.27
2019-03-26T19:56:50.129Z,24.67
2019-03-26T19:59:19.929Z,19.77
2019-03-26T20:01:49.796Z,24.13
2019-03-26T20:04:19.690Z,16.30
2019-03-26T20:06:49.525Z,16.40
2019-03-26T20:09:19.412Z,19.50
2019-03-26T20:11:49.253Z,19.90
2019-03-26T20:14:19.065Z,24.50
2019-03-26T20:16:48.950Z,21.37
2019-03-26T20:19:18.742Z,18.67
2019-03-26T20:21:49.966Z,13.57
2019-03-26T20:24:20.018Z,16.37
2019-03-26T20:26:50.929Z,19.70
2019-03-26T20:29:21.290Z,22.03
2019-03-26T20:31:51.125Z,16.73
2019-03-26T20:34:21.131Z,19.63
2019-03-26T20:36:50.970Z,24.83
2019-03-26T20:39:20.863Z,18.87
2019-03-26T20:41:50.670Z,15.97
2019-03-26T20:44:20.483Z,20.77
2019-03-26T20:46:50.318Z,20.47
2019-03-26T20:49:20.271Z,22.97
2019-03-26T20:51:50.107Z,18.97
2019-03-26T20:54:20.291Z,25.67
2019-03-26T20:56:50.159Z,22.47
2019-03-26T20:59:20.002Z,23.87
2019-03-26T21:01:49.869Z,15.87
2019-03-26T21:04:23.026Z,18.57
2019-03-26T21:06:52.993Z,20.70
2019-03-26T21:09:22.817Z,19.93
2019-03-26T21:11:52.830Z,16.17
2019-03-26T21:14:22.626Z,21.30
2019-03-26T21:16:54.073Z,22.47
2019-03-26T21:19:23.941Z,21.03
2019-03-26T21:21:53.881Z,20.60
2019-03-26T21:24:23.757Z,23.00
2019-03-26T21:26:53.690Z,23.13
2019-03-26T21:29:23.610Z,21.07
2019-03-26T21:31:53.494Z,27.03
2019-03-26T21:34:30.333Z,21.73
2019-03-26T21:36:55.860Z,21.53
2019-03-26T21:39:25.677Z,21.50
2019-03-26T21:41:55.478Z,20.70
2019-03-26T21:44:25.270Z,21.43
2019-03-26T21:46:55.125Z,22.00
2019-03-26T21:49:32.522Z,23.83
2019-03-26T21:52:02.493Z,21.73
2019-03-26T21:54:32.490Z,20.67
2019-03-26T21:57:02.442Z,23.23
2019-03-26T21:59:32.330Z,21.20
2019-03-26T22:02:02.145Z,21.90
2019-03-26T22:04:32.048Z,25.53
2019-03-26T22:07:01.873Z,24.70
2019-03-26T22:09:31.674Z,26.60
2019-03-26T22:12:01.490Z,19.70
2019-03-26T22:14:31.307Z,21.77
2019-03-26T22:17:01.138Z,21.03
2019-03-26T22:19:30.927Z,25.83
2019-03-26T22:22:00.735Z,21.13
2019-03-26T22:25:12.012Z,25.23
2019-03-26T22:27:41.830Z,24.30
2019-03-26T22:30:13.006Z,24.57
2019-03-26T22:32:43.479Z,25.23
2019-03-26T22:35:13.844Z,24.03
2019-03-26T22:37:44.067Z,20.60
2019-03-26T22:40:14.881Z,27.57
2019-03-26T22:42:44.961Z,29.50
2019-03-26T22:45:15.813Z,29.27
2019-03-26T22:47:45.873Z,26.03
2019-03-26T22:50:17.809Z,23.50
2019-03-26T22:52:47.750Z,25.37
2019-03-26T22:55:18.222Z,28.00
2019-03-26T22:57:49.195Z,22.20
2019-03-26T23:00:20.406Z,27.30
2019-03-26T23:02:50.737Z,25.50
2019-03-26T23:05:21.087Z,29.33
2019-03-26T23:07:51.080Z,20.97
2019-03-26T23:10:21.524Z,20.60
2019-03-26T23:12:51.986Z,26.20
2019-03-26T23:15:24.483Z,24.40
2019-03-26T23:17:55.178Z,22.07
2019-03-26T23:20:25.376Z,26.90
2019-03-26T23:22:55.769Z,26.70
2019-03-26T23:25:26.186Z,24.83
2019-03-26T23:27:56.468Z,21.30
2019-03-26T23:30:27.010Z,24.70
2019-03-26T23:32:57.238Z,24.07
2019-03-26T23:35:27.571Z,22.90
2019-03-26T23:37:58.520Z,23.33
2019-03-26T23:40:28.831Z,20.60
2019-03-26T23:42:59.211Z,25.67
2019-03-26T23:45:29.473Z,26.40
2019-03-26T23:47:59.758Z,27.67
2019-03-26T23:50:29.892Z,28.50
2019-03-26T23:53:00.286Z,31.30
2019-03-26T23:55:30.673Z,29.17
2019-03-26T23:58:00.858Z,30.10
